sensor_id;sensor_type;location;lat;lon;timestamp;pressure;altitude;pressure_sealevel;temperature
10598;BMP180;5346;48.766;8.674;2023-08-01T00:00:14;93241.00;;;15.30
10598;BMP180;5346;48.766;8.674;2023-08-01T00:02:49;93237.00;;;15.30
10598;BMP180;5346;48.766;8.674;2023-08-01T00:05:17;93240.00;;;15.20
10598;BMP180;5346;48.766;8.674;2023-08-01T00:07:52;93235.00;;;15.30
10598;BMP180;5346;48.766;8.674;2023-08-01T00:10:20;93224.00;;;15.20
10598;BMP180;5346;48.766;8.674;2023-08-01T00:12:55;93214.00;;;15.30
10598;BMP180;5346;48.766;8.674;2023-08-01T00:15:30;93212.00;;;15.20
10598;BMP180;5346;48.766;8.674;2023-08-01T00:18:05;93213.00;;;15.30
10598;BMP180;5346;48.766;8.674;2023-08-01T00:20:40;93211.00;;;15.30
10598;BMP180;5346;48.766;8.674;2023-08-01T00:23:09;93213.00;;;15.40
10598;BMP180;5346;48.766;8.674;2023-08-01T00:25:44;93201.00;;;15.30
10598;BMP180;5346;48.766;8.674;2023-08-01T00:28:11;93193.00;;;15.40
10598;BMP180;5346;48.766;8.674;2023-08-01T00:30:47;93188.00;;;15.40
10598;BMP180;5346;48.766;8.674;2023-08-01T00:33:14;93194.00;;;15.30
10598;BMP180;5346;48.766;8.674;2023-08-01T00:35:56;93183.00;;;15.30
10598;BMP180;5346;48.766;8.674;2023-08-01T00:38:36;93179.00;;;15.40
10598;BMP180;5346;48.766;8.674;2023-08-01T00:41:11;93178.00;;;15.40
10598;BMP180;5346;48.766;8.674;2023-08-01T00:43:45;93181.00;;;15.40
10598;BMP180;5346;48.766;8.674;2023-08-01T00:46:19;93176.00;;;15.50
10598;BMP180;5346;48.766;8.674;2023-08-01T00:48:54;93169.00;;;15.60
10598;BMP180;5346;48.766;8.674;2023-08-01T00:51:32;93163.00;;;15.50
10598;BMP180;5346;48.766;8.674;2023-08-01T00:54:07;93167.00;;;15.60
10598;BMP180;5346;48.766;8.674;2023-08-01T00:56:35;93164.00;;;15.60
10598;BMP180;5346;48.766;8.674;2023-08-01T00:59:05;93173.00;;;15.60
10598;BMP180;5346;48.766;8.674;2023-08-01T01:01:40;93173.00;;;15.60
10598;BMP180;5346;48.766;8.674;2023-08-01T01:04:16;93173.00;;;15.50
10598;BMP180;5346;48.766;8.674;2023-08-01T01:07:10;93169.00;;;15.30
10598;BMP180;5346;48.766;8.674;2023-08-01T01:09:38;93169.00;;;15.10
10598;BMP180;5346;48.766;8.674;2023-08-01T01:12:12;93168.00;;;14.90
10598;BMP180;5346;48.766;8.674;2023-08-01T01:14:47;93159.00;;;14.80
10598;BMP180;5346;48.766;8.674;2023-08-01T01:17:15;93151.00;;;14.70
10598;BMP180;5346;48.766;8.674;2023-08-01T01:19:50;93143.00;;;14.60
10598;BMP180;5346;48.766;8.674;2023-08-01T01:22:26;93137.00;;;14.60
10598;BMP180;5346;48.766;8.674;2023-08-01T01:25:02;93152.00;;;14.50
10598;BMP180;5346;48.766;8.674;2023-08-01T01:27:37;93140.00;;;14.50
10598;BMP180;5346;48.766;8.674;2023-08-01T01:30:12;93138.00;;;14.50
10598;BMP180;5346;48.766;8.674;2023-08-01T01:32:46;93130.00;;;14.50
10598;BMP180;5346;48.766;8.674;2023-08-01T01:35:21;93121.00;;;14.50
10598;BMP180;5346;48.766;8.674;2023-08-01T01:38:03;93117.00;;;14.50
10598;BMP180;5346;48.766;8.674;2023-08-01T01:40:32;93106.00;;;14.50
10598;BMP180;5346;48.766;8.674;2023-08-01T01:43:07;93101.00;;;14.50
10598;BMP180;5346;48.766;8.674;2023-08-01T01:45:35;93100.00;;;14.50
10598;BMP180;5346;48.766;8.674;2023-08-01T01:48:10;93096.00;;;14.40
10598;BMP180;5346;48.766;8.674;2023-08-01T01:50:43;93087.00;;;14.50
10598;BMP180;5346;48.766;8.674;2023-08-01T01:53:18;93090.00;;;14.50
10598;BMP180;5346;48.766;8.674;2023-08-01T01:55:45;93089.00;;;14.50
10598;BMP180;5346;48.766;8.674;2023-08-01T01:58:21;93084.00;;;14.50
10598;BMP180;5346;48.766;8.674;2023-08-01T02:00:49;93087.00;;;14.50
10598;BMP180;5346;48.766;8.674;2023-08-01T02:03:17;93083.00;;;14.50
10598;BMP180;5346;48.766;8.674;2023-08-01T02:05:52;93090.00;;;14.50
10598;BMP180;5346;48.766;8.674;2023-08-01T02:08:19;93086.00;;;14.50
10598;BMP180;5346;48.766;8.674;2023-08-01T02:10:54;93077.00;;;14.60
10598;BMP180;5346;48.766;8.674;2023-08-01T02:13:27;93090.00;;;14.50
10598;BMP180;5346;48.766;8.674;2023-08-01T02:16:02;93085.00;;;14.50
10598;BMP180;5346;48.766;8.674;2023-08-01T02:18:31;93099.00;;;14.70
10598;BMP180;5346;48.766;8.674;2023-08-01T02:21:06;93080.00;;;14.50
10598;BMP180;5346;48.766;8.674;2023-08-01T02:23:40;93074.00;;;14.50
10598;BMP180;5346;48.766;8.674;2023-08-01T02:26:14;93068.00;;;14.50
10598;BMP180;5346;48.766;8.674;2023-08-01T02:28:42;93070.00;;;14.50
10598;BMP180;5346;48.766;8.674;2023-08-01T02:31:16;93068.00;;;14.50
10598;BMP180;5346;48.766;8.674;2023-08-01T02:33:57;93064.00;;;14.50
10598;BMP180;5346;48.766;8.674;2023-08-01T02:36:31;93066.00;;;14.40
10598;BMP180;5346;48.766;8.674;2023-08-01T02:38:59;93067.00;;;14.50
10598;BMP180;5346;48.766;8.674;2023-08-01T02:41:33;93067.00;;;14.50
10598;BMP180;5346;48.766;8.674;2023-08-01T02:44:01;93077.00;;;14.50
10598;BMP180;5346;48.766;8.674;2023-08-01T02:46:35;93069.00;;;14.50
10598;BMP180;5346;48.766;8.674;2023-08-01T02:49:04;93062.00;;;14.50
10598;BMP180;5346;48.766;8.674;2023-08-01T02:51:39;93055.00;;;14.50
10598;BMP180;5346;48.766;8.674;2023-08-01T02:54:07;93053.00;;;14.50
10598;BMP180;5346;48.766;8.674;2023-08-01T02:56:41;93055.00;;;14.50
10598;BMP180;5346;48.766;8.674;2023-08-01T02:59:09;93067.00;;;14.50
10598;BMP180;5346;48.766;8.674;2023-08-01T03:01:38;93059.00;;;14.50
10598;BMP180;5346;48.766;8.674;2023-08-01T03:04:12;93062.00;;;14.60
10598;BMP180;5346;48.766;8.674;2023-08-01T03:06:39;93045.00;;;14.50
10598;BMP180;5346;48.766;8.674;2023-08-01T03:09:08;93048.00;;;14.60
10598;BMP180;5346;48.766;8.674;2023-08-01T03:11:44;93055.00;;;14.70
10598;BMP180;5346;48.766;8.674;2023-08-01T03:14:19;93056.00;;;14.70
10598;BMP180;5346;48.766;8.674;2023-08-01T03:16:53;93054.00;;;14.70
10598;BMP180;5346;48.766;8.674;2023-08-01T03:19:26;93050.00;;;14.70
10598;BMP180;5346;48.766;8.674;2023-08-01T03:22:01;93043.00;;;14.80
10598;BMP180;5346;48.766;8.674;2023-08-01T03:24:36;93044.00;;;14.80
10598;BMP180;5346;48.766;8.674;2023-08-01T03:27:11;93046.00;;;14.80
10598;BMP180;5346;48.766;8.674;2023-08-01T03:29:38;93039.00;;;14.80
10598;BMP180;5346;48.766;8.674;2023-08-01T03:32:13;93037.00;;;14.70
10598;BMP180;5346;48.766;8.674;2023-08-01T03:34:47;93058.00;;;14.70
10598;BMP180;5346;48.766;8.674;2023-08-01T03:37:28;93050.00;;;14.70
10598;BMP180;5346;48.766;8.674;2023-08-01T03:40:02;93051.00;;;14.70
10598;BMP180;5346;48.766;8.674;2023-08-01T03:42:36;93067.00;;;14.70
10598;BMP180;5346;48.766;8.674;2023-08-01T03:45:11;93062.00;;;14.70
10598;BMP180;5346;48.766;8.674;2023-08-01T03:47:45;93060.00;;;14.70
10598;BMP180;5346;48.766;8.674;2023-08-01T03:50:12;93046.00;;;14.70
10598;BMP180;5346;48.766;8.674;2023-08-01T03:52:48;93019.00;;;14.70
10598;BMP180;5346;48.766;8.674;2023-08-01T03:55:16;93000.00;;;14.70
10598;BMP180;5346;48.766;8.674;2023-08-01T03:57:50;92958.00;;;14.60
10598;BMP180;5346;48.766;8.674;2023-08-01T04:00:25;92942.00;;;14.50
10598;BMP180;5346;48.766;8.674;2023-08-01T04:03:00;92920.00;;;14.50
10598;BMP180;5346;48.766;8.674;2023-08-01T04:05:29;92906.00;;;14.50
10598;BMP180;5346;48.766;8.674;2023-08-01T04:08:04;92891.00;;;14.40
10598;BMP180;5346;48.766;8.674;2023-08-01T04:10:31;92907.00;;;14.40
10598;BMP180;5346;48.766;8.674;2023-08-01T04:13:06;92887.00;;;14.30
10598;BMP180;5346;48.766;8.674;2023-08-01T04:15:40;92869.00;;;14.40
10598;BMP180;5346;48.766;8.674;2023-08-01T04:18:22;92864.00;;;14.40
10598;BMP180;5346;48.766;8.674;2023-08-01T04:20:49;92847.00;;;14.40
10598;BMP180;5346;48.766;8.674;2023-08-01T04:23:24;92825.00;;;14.40
10598;BMP180;5346;48.766;8.674;2023-08-01T04:25:58;92832.00;;;14.40
10598;BMP180;5346;48.766;8.674;2023-08-01T04:28:34;92823.00;;;14.40
10598;BMP180;5346;48.766;8.674;2023-08-01T04:31:09;92828.00;;;14.40
10598;BMP180;5346;48.766;8.674;2023-08-01T04:33:50;92843.00;;;14.40
10598;BMP180;5346;48.766;8.674;2023-08-01T04:36:24;92845.00;;;14.40
10598;BMP180;5346;48.766;8.674;2023-08-01T04:39:06;92851.00;;;14.40
10598;BMP180;5346;48.766;8.674;2023-08-01T04:41:34;92856.00;;;14.40
10598;BMP180;5346;48.766;8.674;2023-08-01T04:44:08;92884.00;;;14.40
10598;BMP180;5346;48.766;8.674;2023-08-01T04:46:42;92945.00;;;14.40
10598;BMP180;5346;48.766;8.674;2023-08-01T04:49:16;92957.00;;;14.30
10598;BMP180;5346;48.766;8.674;2023-08-01T04:51:44;92948.00;;;14.10
10598;BMP180;5346;48.766;8.674;2023-08-01T04:54:18;92963.00;;;14.10
10598;BMP180;5346;48.766;8.674;2023-08-01T04:56:45;92934.00;;;14.10
10598;BMP180;5346;48.766;8.674;2023-08-01T04:59:20;92936.00;;;14.20
10598;BMP180;5346;48.766;8.674;2023-08-01T05:01:48;92923.00;;;14.20
10598;BMP180;5346;48.766;8.674;2023-08-01T05:04:22;92907.00;;;14.30
10598;BMP180;5346;48.766;8.674;2023-08-01T05:06:49;92912.00;;;14.20
10598;BMP180;5346;48.766;8.674;2023-08-01T05:09:24;92914.00;;;14.20
10598;BMP180;5346;48.766;8.674;2023-08-01T05:11:51;92916.00;;;14.20
10598;BMP180;5346;48.766;8.674;2023-08-01T05:14:26;92898.00;;;14.20
10598;BMP180;5346;48.766;8.674;2023-08-01T05:16:53;92912.00;;;14.20
10598;BMP180;5346;48.766;8.674;2023-08-01T05:19:28;92902.00;;;14.20
10598;BMP180;5346;48.766;8.674;2023-08-01T05:21:56;92896.00;;;14.40
10598;BMP180;5346;48.766;8.674;2023-08-01T05:24:31;92886.00;;;14.40
10598;BMP180;5346;48.766;8.674;2023-08-01T05:26:58;92894.00;;;14.50
10598;BMP180;5346;48.766;8.674;2023-08-01T05:29:33;92870.00;;;14.60
10598;BMP180;5346;48.766;8.674;2023-08-01T05:32:07;92874.00;;;14.50
10598;BMP180;5346;48.766;8.674;2023-08-01T05:34:47;92873.00;;;14.60
10598;BMP180;5346;48.766;8.674;2023-08-01T05:37:15;92877.00;;;14.70
10598;BMP180;5346;48.766;8.674;2023-08-01T05:39:50;92877.00;;;14.70
10598;BMP180;5346;48.766;8.674;2023-08-01T05:42:18;92874.00;;;14.60
10598;BMP180;5346;48.766;8.674;2023-08-01T05:44:52;92876.00;;;14.70
10598;BMP180;5346;48.766;8.674;2023-08-01T05:47:20;92884.00;;;14.50
10598;BMP180;5346;48.766;8.674;2023-08-01T05:49:54;92899.00;;;14.60
10598;BMP180;5346;48.766;8.674;2023-08-01T05:52:21;92906.00;;;14.60
10598;BMP180;5346;48.766;8.674;2023-08-01T05:54:49;92908.00;;;14.50
10598;BMP180;5346;48.766;8.674;2023-08-01T05:57:24;92915.00;;;14.60
10598;BMP180;5346;48.766;8.674;2023-08-01T05:59:52;92913.00;;;14.50
10598;BMP180;5346;48.766;8.674;2023-08-01T06:02:26;92914.00;;;14.50
10598;BMP180;5346;48.766;8.674;2023-08-01T06:04:53;92909.00;;;14.40
10598;BMP180;5346;48.766;8.674;2023-08-01T06:07:28;92916.00;;;14.30
10598;BMP180;5346;48.766;8.674;2023-08-01T06:09:56;92901.00;;;14.10
10598;BMP180;5346;48.766;8.674;2023-08-01T06:12:23;92912.00;;;14.00
10598;BMP180;5346;48.766;8.674;2023-08-01T06:14:58;92918.00;;;14.10
10598;BMP180;5346;48.766;8.674;2023-08-01T06:17:26;92921.00;;;14.00
10598;BMP180;5346;48.766;8.674;2023-08-01T06:20:00;92928.00;;;14.10
10598;BMP180;5346;48.766;8.674;2023-08-01T06:22:31;92930.00;;;14.00
10598;BMP180;5346;48.766;8.674;2023-08-01T06:25:05;92951.00;;;14.00
10598;BMP180;5346;48.766;8.674;2023-08-01T06:27:33;92957.00;;;14.00
10598;BMP180;5346;48.766;8.674;2023-08-01T06:30:08;92939.00;;;13.90
10598;BMP180;5346;48.766;8.674;2023-08-01T06:32:43;92928.00;;;14.00
10598;BMP180;5346;48.766;8.674;2023-08-01T06:35:32;92927.00;;;14.10
10598;BMP180;5346;48.766;8.674;2023-08-01T06:38:14;92920.00;;;14.10
10598;BMP180;5346;48.766;8.674;2023-08-01T06:40:48;92930.00;;;14.10
10598;BMP180;5346;48.766;8.674;2023-08-01T06:43:22;92910.00;;;14.20
10598;BMP180;5346;48.766;8.674;2023-08-01T06:45:58;92910.00;;;14.10
10598;BMP180;5346;48.766;8.674;2023-08-01T06:48:25;92915.00;;;14.20
10598;BMP180;5346;48.766;8.674;2023-08-01T06:50:53;92919.00;;;14.20
10598;BMP180;5346;48.766;8.674;2023-08-01T06:53:28;92920.00;;;14.20
10598;BMP180;5346;48.766;8.674;2023-08-01T06:55:55;92915.00;;;14.20
10598;BMP180;5346;48.766;8.674;2023-08-01T06:58:30;92925.00;;;14.10
10598;BMP180;5346;48.766;8.674;2023-08-01T07:00:58;92914.00;;;14.10
10598;BMP180;5346;48.766;8.674;2023-08-01T07:03:32;92921.00;;;14.10
10598;BMP180;5346;48.766;8.674;2023-08-01T07:06:00;92930.00;;;14.00
10598;BMP180;5346;48.766;8.674;2023-08-01T07:08:35;92937.00;;;14.00
10598;BMP180;5346;48.766;8.674;2023-08-01T07:11:09;92931.00;;;13.90
10598;BMP180;5346;48.766;8.674;2023-08-01T07:13:43;92929.00;;;13.90
10598;BMP180;5346;48.766;8.674;2023-08-01T07:16:17;92929.00;;;13.90
10598;BMP180;5346;48.766;8.674;2023-08-01T07:18:51;92929.00;;;13.90
10598;BMP180;5346;48.766;8.674;2023-08-01T07:21:26;92922.00;;;14.00
10598;BMP180;5346;48.766;8.674;2023-08-01T07:24:01;92935.00;;;14.10
10598;BMP180;5346;48.766;8.674;2023-08-01T07:26:29;92928.00;;;14.20
10598;BMP180;5346;48.766;8.674;2023-08-01T07:29:04;92930.00;;;14.10
10598;BMP180;5346;48.766;8.674;2023-08-01T07:31:32;92925.00;;;14.20
10598;BMP180;5346;48.766;8.674;2023-08-01T07:34:12;92932.00;;;14.20
10598;BMP180;5346;48.766;8.674;2023-08-01T07:36:54;92945.00;;;14.20
10598;BMP180;5346;48.766;8.674;2023-08-01T07:39:28;92932.00;;;14.30
10598;BMP180;5346;48.766;8.674;2023-08-01T07:42:02;92928.00;;;14.50
10598;BMP180;5346;48.766;8.674;2023-08-01T07:44:37;92928.00;;;14.50
10598;BMP180;5346;48.766;8.674;2023-08-01T07:47:11;92921.00;;;14.60
10598;BMP180;5346;48.766;8.674;2023-08-01T07:49:38;92935.00;;;14.70
10598;BMP180;5346;48.766;8.674;2023-08-01T07:52:14;92935.00;;;14.70
10598;BMP180;5346;48.766;8.674;2023-08-01T07:54:42;92943.00;;;14.60
10598;BMP180;5346;48.766;8.674;2023-08-01T07:57:16;92936.00;;;14.70
10598;BMP180;5346;48.766;8.674;2023-08-01T07:59:51;92941.00;;;14.70
10598;BMP180;5346;48.766;8.674;2023-08-01T08:02:19;92928.00;;;14.70
10598;BMP180;5346;48.766;8.674;2023-08-01T08:04:53;92934.00;;;14.70
10598;BMP180;5346;48.766;8.674;2023-08-01T08:07:27;92931.00;;;14.80
10598;BMP180;5346;48.766;8.674;2023-08-01T08:10:01;92927.00;;;14.80
10598;BMP180;5346;48.766;8.674;2023-08-01T08:12:29;92933.00;;;14.90
10598;BMP180;5346;48.766;8.674;2023-08-01T08:15:04;92928.00;;;14.80
10598;BMP180;5346;48.766;8.674;2023-08-01T08:17:32;92937.00;;;14.80
10598;BMP180;5346;48.766;8.674;2023-08-01T08:20:07;92937.00;;;14.80
10598;BMP180;5346;48.766;8.674;2023-08-01T08:22:35;92942.00;;;15.00
10598;BMP180;5346;48.766;8.674;2023-08-01T08:25:10;92940.00;;;14.90
10598;BMP180;5346;48.766;8.674;2023-08-01T08:27:37;92942.00;;;15.00
10598;BMP180;5346;48.766;8.674;2023-08-01T08:30:12;92942.00;;;15.00
10598;BMP180;5346;48.766;8.674;2023-08-01T08:32:39;92934.00;;;15.00
10598;BMP180;5346;48.766;8.674;2023-08-01T08:35:20;92936.00;;;15.20
10598;BMP180;5346;48.766;8.674;2023-08-01T08:37:48;92946.00;;;15.30
10598;BMP180;5346;48.766;8.674;2023-08-01T08:40:23;92944.00;;;15.20
10598;BMP180;5346;48.766;8.674;2023-08-01T08:42:59;92955.00;;;15.30
10598;BMP180;5346;48.766;8.674;2023-08-01T08:45:36;92954.00;;;15.20
10598;BMP180;5346;48.766;8.674;2023-08-01T08:48:17;92951.00;;;15.10
10598;BMP180;5346;48.766;8.674;2023-08-01T08:50:46;92944.00;;;15.10
10598;BMP180;5346;48.766;8.674;2023-08-01T08:53:21;92947.00;;;15.10
10598;BMP180;5346;48.766;8.674;2023-08-01T08:55:50;92941.00;;;15.20
10598;BMP180;5346;48.766;8.674;2023-08-01T08:58:24;92941.00;;;15.20
10598;BMP180;5346;48.766;8.674;2023-08-01T09:01:00;92959.00;;;15.30
10598;BMP180;5346;48.766;8.674;2023-08-01T09:03:35;92953.00;;;15.30
10598;BMP180;5346;48.766;8.674;2023-08-01T09:06:16;92965.00;;;15.40
10598;BMP180;5346;48.766;8.674;2023-08-01T09:14:14;92965.00;;;15.90
10598;BMP180;5346;48.766;8.674;2023-08-01T09:16:43;92978.00;;;16.00
10598;BMP180;5346;48.766;8.674;2023-08-01T09:19:23;92972.00;;;15.90
10598;BMP180;5346;48.766;8.674;2023-08-01T09:21:59;92973.00;;;16.00
10598;BMP180;5346;48.766;8.674;2023-08-01T09:24:34;92974.00;;;16.30
10598;BMP180;5346;48.766;8.674;2023-08-01T09:27:08;92979.00;;;16.60
10598;BMP180;5346;48.766;8.674;2023-08-01T09:29:36;92987.00;;;16.60
10598;BMP180;5346;48.766;8.674;2023-08-01T09:32:14;93004.00;;;16.30
10598;BMP180;5346;48.766;8.674;2023-08-01T09:34:43;92980.00;;;16.20
10598;BMP180;5346;48.766;8.674;2023-08-01T09:37:19;92983.00;;;16.20
10598;BMP180;5346;48.766;8.674;2023-08-01T09:39:55;92981.00;;;16.20
10598;BMP180;5346;48.766;8.674;2023-08-01T09:42:23;92995.00;;;16.20
10598;BMP180;5346;48.766;8.674;2023-08-01T09:44:57;92991.00;;;16.00
10598;BMP180;5346;48.766;8.674;2023-08-01T09:47:24;92985.00;;;16.30
10598;BMP180;5346;48.766;8.674;2023-08-01T09:50:10;93000.00;;;16.30
10598;BMP180;5346;48.766;8.674;2023-08-01T09:52:39;93007.00;;;16.00
10598;BMP180;5346;48.766;8.674;2023-08-01T09:55:14;93007.00;;;15.90
10598;BMP180;5346;48.766;8.674;2023-08-01T09:57:49;93019.00;;;15.50
10598;BMP180;5346;48.766;8.674;2023-08-01T10:00:26;93026.00;;;15.50
10598;BMP180;5346;48.766;8.674;2023-08-01T10:02:56;93017.00;;;15.30
10598;BMP180;5346;48.766;8.674;2023-08-01T10:05:36;93023.00;;;14.90
10598;BMP180;5346;48.766;8.674;2023-08-01T10:08:05;93017.00;;;14.80
10598;BMP180;5346;48.766;8.674;2023-08-01T10:10:40;93012.00;;;14.60
10598;BMP180;5346;48.766;8.674;2023-08-01T10:13:08;92995.00;;;15.10
10598;BMP180;5346;48.766;8.674;2023-08-01T10:15:37;93001.00;;;15.50
10598;BMP180;5346;48.766;8.674;2023-08-01T10:18:12;92986.00;;;16.10
10598;BMP180;5346;48.766;8.674;2023-08-01T10:20:48;92998.00;;;16.80
10598;BMP180;5346;48.766;8.674;2023-08-01T10:23:23;93001.00;;;17.50
10598;BMP180;5346;48.766;8.674;2023-08-01T10:25:59;93005.00;;;16.80
10598;BMP180;5346;48.766;8.674;2023-08-01T10:28:34;93017.00;;;17.10
10598;BMP180;5346;48.766;8.674;2023-08-01T10:31:15;93019.00;;;17.00
10598;BMP180;5346;48.766;8.674;2023-08-01T10:33:45;93021.00;;;16.80
10598;BMP180;5346;48.766;8.674;2023-08-01T10:36:21;93018.00;;;16.50
10598;BMP180;5346;48.766;8.674;2023-08-01T10:38:59;93041.00;;;16.20
10598;BMP180;5346;48.766;8.674;2023-08-01T10:41:35;93037.00;;;16.40
10598;BMP180;5346;48.766;8.674;2023-08-01T10:44:14;93027.00;;;16.50
10598;BMP180;5346;48.766;8.674;2023-08-01T10:46:53;93042.00;;;17.00
10598;BMP180;5346;48.766;8.674;2023-08-01T10:49:34;93034.00;;;16.90
10598;BMP180;5346;48.766;8.674;2023-08-01T10:52:24;93012.00;;;17.10
10598;BMP180;5346;48.766;8.674;2023-08-01T10:54:59;93003.00;;;17.00
10598;BMP180;5346;48.766;8.674;2023-08-01T10:57:39;93020.00;;;16.70
10598;BMP180;5346;48.766;8.674;2023-08-01T11:00:07;92987.00;;;17.60
10598;BMP180;5346;48.766;8.674;2023-08-01T11:02:49;93034.00;;;18.00
10598;BMP180;5346;48.766;8.674;2023-08-01T11:05:25;93012.00;;;17.50
10598;BMP180;5346;48.766;8.674;2023-08-01T11:08:05;93009.00;;;18.20
10598;BMP180;5346;48.766;8.674;2023-08-01T11:10:33;93033.00;;;18.70
10598;BMP180;5346;48.766;8.674;2023-08-01T11:13:12;93050.00;;;17.90
10598;BMP180;5346;48.766;8.674;2023-08-01T11:15:39;93042.00;;;17.30
10598;BMP180;5346;48.766;8.674;2023-08-01T11:18:14;93032.00;;;17.00
10598;BMP180;5346;48.766;8.674;2023-08-01T11:20:48;93047.00;;;17.20
10598;BMP180;5346;48.766;8.674;2023-08-01T11:23:29;93040.00;;;17.10
10598;BMP180;5346;48.766;8.674;2023-08-01T11:26:08;93048.00;;;17.10
10598;BMP180;5346;48.766;8.674;2023-08-01T11:28:45;93049.00;;;16.80
10598;BMP180;5346;48.766;8.674;2023-08-01T11:31:14;93054.00;;;17.20
10598;BMP180;5346;48.766;8.674;2023-08-01T11:33:58;93055.00;;;16.90
10598;BMP180;5346;48.766;8.674;2023-08-01T11:36:33;93024.00;;;17.50
10598;BMP180;5346;48.766;8.674;2023-08-01T11:39:15;93043.00;;;18.60
10598;BMP180;5346;48.766;8.674;2023-08-01T11:41:50;93015.00;;;19.20
10598;BMP180;5346;48.766;8.674;2023-08-01T11:44:22;93014.00;;;20.20
10598;BMP180;5346;48.766;8.674;2023-08-01T11:46:57;93006.00;;;21.00
10598;BMP180;5346;48.766;8.674;2023-08-01T11:49:25;93042.00;;;21.00
10598;BMP180;5346;48.766;8.674;2023-08-01T11:51:53;93001.00;;;22.30
10598;BMP180;5346;48.766;8.674;2023-08-01T11:54:28;93006.00;;;22.10
10598;BMP180;5346;48.766;8.674;2023-08-01T11:57:01;93046.00;;;22.40
10598;BMP180;5346;48.766;8.674;2023-08-01T11:59:47;93015.00;;;20.90
10598;BMP180;5346;48.766;8.674;2023-08-01T12:02:26;93021.00;;;19.90
10598;BMP180;5346;48.766;8.674;2023-08-01T12:05:00;93027.00;;;20.10
10598;BMP180;5346;48.766;8.674;2023-08-01T12:07:35;93037.00;;;20.70
10598;BMP180;5346;48.766;8.674;2023-08-01T12:10:03;93022.00;;;20.70
10598;BMP180;5346;48.766;8.674;2023-08-01T12:12:44;93057.00;;;20.60
10598;BMP180;5346;48.766;8.674;2023-08-01T12:15:14;93073.00;;;19.60
10598;BMP180;5346;48.766;8.674;2023-08-01T12:17:51;93092.00;;;19.70
10598;BMP180;5346;48.766;8.674;2023-08-01T12:20:19;93059.00;;;20.00
10598;BMP180;5346;48.766;8.674;2023-08-01T12:22:53;93052.00;;;20.00
10598;BMP180;5346;48.766;8.674;2023-08-01T12:25:27;93068.00;;;20.00
10598;BMP180;5346;48.766;8.674;2023-08-01T12:27:56;93058.00;;;21.20
10598;BMP180;5346;48.766;8.674;2023-08-01T12:30:30;93060.00;;;21.30
10598;BMP180;5346;48.766;8.674;2023-08-01T12:32:57;93019.00;;;22.10
10598;BMP180;5346;48.766;8.674;2023-08-01T12:35:40;93036.00;;;22.10
10598;BMP180;5346;48.766;8.674;2023-08-01T12:38:15;93034.00;;;22.20
10598;BMP180;5346;48.766;8.674;2023-08-01T12:40:43;93040.00;;;22.40
10598;BMP180;5346;48.766;8.674;2023-08-01T12:43:17;93048.00;;;22.30
10598;BMP180;5346;48.766;8.674;2023-08-01T12:45:46;93062.00;;;21.90
10598;BMP180;5346;48.766;8.674;2023-08-01T12:48:22;93036.00;;;21.10
10598;BMP180;5346;48.766;8.674;2023-08-01T12:50:50;93051.00;;;22.30
10598;BMP180;5346;48.766;8.674;2023-08-01T12:53:24;93070.00;;;22.00
10598;BMP180;5346;48.766;8.674;2023-08-01T12:55:58;93063.00;;;21.40
10598;BMP180;5346;48.766;8.674;2023-08-01T12:58:33;93071.00;;;21.00
10598;BMP180;5346;48.766;8.674;2023-08-01T13:01:08;93086.00;;;20.10
10598;BMP180;5346;48.766;8.674;2023-08-01T13:03:43;93087.00;;;20.00
10598;BMP180;5346;48.766;8.674;2023-08-01T13:06:18;93108.00;;;20.00
10598;BMP180;5346;48.766;8.674;2023-08-01T13:08:46;93109.00;;;19.20
10598;BMP180;5346;48.766;8.674;2023-08-01T13:11:21;93108.00;;;18.50
10598;BMP180;5346;48.766;8.674;2023-08-01T13:13:49;93110.00;;;18.80
10598;BMP180;5346;48.766;8.674;2023-08-01T13:16:18;93075.00;;;19.30
10598;BMP180;5346;48.766;8.674;2023-08-01T13:18:52;93069.00;;;20.90
10598;BMP180;5346;48.766;8.674;2023-08-01T13:21:22;93088.00;;;22.00
10598;BMP180;5346;48.766;8.674;2023-08-01T13:23:57;93079.00;;;21.70
10598;BMP180;5346;48.766;8.674;2023-08-01T13:26:34;93078.00;;;21.70
10598;BMP180;5346;48.766;8.674;2023-08-01T13:29:08;93068.00;;;22.00
10598;BMP180;5346;48.766;8.674;2023-08-01T13:31:37;93082.00;;;22.10
10598;BMP180;5346;48.766;8.674;2023-08-01T13:34:05;93106.00;;;20.60
10598;BMP180;5346;48.766;8.674;2023-08-01T13:36:39;93105.00;;;21.40
10598;BMP180;5346;48.766;8.674;2023-08-01T13:39:20;93071.00;;;22.30
10598;BMP180;5346;48.766;8.674;2023-08-01T13:41:48;93064.00;;;21.50
10598;BMP180;5346;48.766;8.674;2023-08-01T13:44:22;93068.00;;;21.80
10598;BMP180;5346;48.766;8.674;2023-08-01T13:46:49;93071.00;;;21.20
10598;BMP180;5346;48.766;8.674;2023-08-01T13:49:24;93068.00;;;21.70
10598;BMP180;5346;48.766;8.674;2023-08-01T13:52:00;93065.00;;;21.80
10598;BMP180;5346;48.766;8.674;2023-08-01T13:54:28;93054.00;;;22.40
10598;BMP180;5346;48.766;8.674;2023-08-01T13:57:03;93092.00;;;23.50
10598;BMP180;5346;48.766;8.674;2023-08-01T13:59:31;93064.00;;;23.40
10598;BMP180;5346;48.766;8.674;2023-08-01T14:02:05;93061.00;;;21.90
10598;BMP180;5346;48.766;8.674;2023-08-01T14:04:37;93089.00;;;22.30
10598;BMP180;5346;48.766;8.674;2023-08-01T14:07:11;93098.00;;;21.10
10598;BMP180;5346;48.766;8.674;2023-08-01T14:09:39;93090.00;;;20.60
10598;BMP180;5346;48.766;8.674;2023-08-01T14:12:07;93094.00;;;19.90
10598;BMP180;5346;48.766;8.674;2023-08-01T14:14:41;93101.00;;;20.60
10598;BMP180;5346;48.766;8.674;2023-08-01T14:17:16;93092.00;;;20.70
10598;BMP180;5346;48.766;8.674;2023-08-01T14:19:44;93096.00;;;20.30
10598;BMP180;5346;48.766;8.674;2023-08-01T14:22:18;93076.00;;;20.00
10598;BMP180;5346;48.766;8.674;2023-08-01T14:24:46;93100.00;;;20.90
10598;BMP180;5346;48.766;8.674;2023-08-01T14:27:20;93111.00;;;20.50
10598;BMP180;5346;48.766;8.674;2023-08-01T14:29:54;93106.00;;;19.20
10598;BMP180;5346;48.766;8.674;2023-08-01T14:32:21;93106.00;;;19.80
10598;BMP180;5346;48.766;8.674;2023-08-01T14:34:49;93113.00;;;20.60
10598;BMP180;5346;48.766;8.674;2023-08-01T14:37:24;93112.00;;;19.80
10598;BMP180;5346;48.766;8.674;2023-08-01T14:39:53;93124.00;;;18.90
10598;BMP180;5346;48.766;8.674;2023-08-01T14:42:27;93087.00;;;19.60
10598;BMP180;5346;48.766;8.674;2023-08-01T14:44:55;93071.00;;;20.50
10598;BMP180;5346;48.766;8.674;2023-08-01T14:47:31;93111.00;;;21.20
10598;BMP180;5346;48.766;8.674;2023-08-01T14:49:59;93102.00;;;20.90
10598;BMP180;5346;48.766;8.674;2023-08-01T14:52:37;93092.00;;;19.80
10598;BMP180;5346;48.766;8.674;2023-08-01T14:55:13;93086.00;;;20.60
10598;BMP180;5346;48.766;8.674;2023-08-01T14:57:41;93118.00;;;20.00
10598;BMP180;5346;48.766;8.674;2023-08-01T15:00:22;93082.00;;;20.10